Chili, Indiana
Current Conditions -  °F | °C
As of 2:35 PM on Friday 24 Oct 2014 (Local Time) from KRCR Reporting Station
Scattered Clouds Scattered Clouds  
Wind Chill: 64°   Ceiling: Unl
Heat Index: 64°   Visibility: 10mi
Dew Point: 52°   Wind: 8mph
Humidity: 64%   Direction: 220°SW
Pressure: 30.02"   Gusts: NA
Location:  40.8903°N, 86.0528°W
Report Text: KRCR 241835Z AUTO 22007KT 10SM SCT032 18/11 A3002 RMK AO2
Loading
Personal Weather Stations






























Interactive Weather Map
Tropical Storm Tracking
New forecast layout! Learn more

10-Day Weather Forecast

Advertisements
Track Severe Weather on mobile